createdAt,value
2023-04-26T00:01:53.183Z,10.15
2023-04-26T00:04:58.844Z,11.10
2023-04-26T00:08:01.595Z,6.90
2023-04-26T00:11:04.113Z,9.33
2023-04-26T00:14:06.770Z,7.00
2023-04-26T00:17:09.437Z,8.80
2023-04-26T00:20:14.097Z,9.20
2023-04-26T00:23:17.361Z,7.83
2023-04-26T00:26:19.829Z,7.50
2023-04-26T00:29:22.369Z,10.77
2023-04-26T00:32:24.891Z,8.27
2023-04-26T00:35:28.848Z,8.33
2023-04-26T00:38:31.604Z,8.53
2023-04-26T00:41:34.289Z,7.88
2023-04-26T00:44:40.006Z,8.83
2023-04-26T00:47:42.687Z,14.80
2023-04-26T00:50:47.691Z,10.50
2023-04-26T00:53:50.489Z,8.43
2023-04-26T00:56:53.332Z,6.35
2023-04-26T00:59:56.360Z,7.60
2023-04-26T01:02:59.044Z,9.95
2023-04-26T01:06:02.991Z,8.33
2023-04-26T01:09:09.876Z,5.40
2023-04-26T01:12:13.074Z,13.07
2023-04-26T01:15:15.624Z,7.05
2023-04-26T01:18:18.243Z,5.73
2023-04-26T01:21:22.796Z,6.57
2023-04-26T01:24:26.704Z,5.57
2023-04-26T01:27:29.248Z,6.53
2023-04-26T01:30:31.801Z,9.07
2023-04-26T01:33:34.273Z,7.93
2023-04-26T01:36:37.018Z,7.60
2023-04-26T01:39:41.009Z,8.20
2023-04-26T01:42:43.660Z,10.83
2023-04-26T01:45:47.763Z,9.53
2023-04-26T01:48:50.540Z,12.03
2023-04-26T01:51:53.387Z,10.40
2023-04-26T01:54:57.342Z,7.80
2023-04-26T01:57:59.913Z,10.37
2023-04-26T02:01:07.968Z,10.60
2023-04-26T02:04:10.632Z,7.73
2023-04-26T02:07:13.161Z,8.77
2023-04-26T02:10:17.037Z,12.40
2023-04-26T02:13:19.564Z,6.80
2023-04-26T02:16:22.385Z,9.10
2023-04-26T02:19:25.057Z,10.05
2023-04-26T02:22:27.716Z,9.20
2023-04-26T02:25:32.198Z,9.93
2023-04-26T02:28:34.708Z,12.30
2023-04-26T02:31:37.286Z,7.27
2023-04-26T02:34:39.796Z,10.83
2023-04-26T02:37:42.281Z,8.83
2023-04-26T02:40:46.154Z,7.60
2023-04-26T02:43:48.647Z,10.93
2023-04-26T02:46:51.255Z,6.70
2023-04-26T02:49:53.733Z,8.60
2023-04-26T02:52:56.292Z,7.17
2023-04-26T02:56:00.982Z,8.20
2023-04-26T02:59:03.498Z,5.50
2023-04-26T03:02:06.226Z,6.43
2023-04-26T03:05:10.720Z,9.75
2023-04-26T03:08:13.480Z,8.03
2023-04-26T03:11:17.637Z,10.13
2023-04-26T03:14:20.155Z,9.43
2023-04-26T03:17:22.822Z,8.67
2023-04-26T03:20:25.597Z,8.50
2023-04-26T03:23:28.700Z,9.60
2023-04-26T03:26:32.609Z,11.48
2023-04-26T03:29:35.267Z,13.43
2023-04-26T03:32:38.386Z,8.43
2023-04-26T03:35:41.018Z,12.32
2023-04-26T03:38:43.875Z,14.00
2023-04-26T03:41:47.844Z,10.27
2023-04-26T03:44:50.548Z,13.80
2023-04-26T03:47:53.356Z,11.90
2023-04-26T03:50:56.261Z,16.70
2023-04-26T03:53:59.881Z,12.55
2023-04-26T03:57:03.880Z,14.95
2023-04-26T04:00:10.107Z,13.83
2023-04-26T04:03:12.925Z,11.47
2023-04-26T04:06:15.784Z,19.27
2023-04-26T04:09:18.296Z,17.97
2023-04-26T04:12:22.918Z,18.87
2023-04-26T04:15:25.652Z,15.90
2023-04-26T04:18:28.268Z,18.43
2023-04-26T04:21:32.053Z,18.07
2023-04-26T04:27:38.992Z,20.00
2023-04-26T04:30:43.619Z,17.30
2023-04-26T04:33:46.438Z,17.83
2023-04-26T04:36:48.937Z,16.60
2023-04-26T04:39:51.549Z,19.17
2023-04-26T04:42:55.736Z,19.70
2023-04-26T04:45:58.900Z,25.77
2023-04-26T04:49:02.152Z,21.35
2023-04-26T04:52:05.336Z,20.80
2023-04-26T04:55:08.458Z,17.25
2023-04-26T04:58:14.036Z,19.50
2023-04-26T05:01:16.633Z,17.73
2023-04-26T05:04:19.489Z,17.57
2023-04-26T05:07:24.422Z,24.25
2023-04-26T05:10:27.262Z,22.57
2023-04-26T05:13:31.213Z,18.73
2023-04-26T05:16:35.551Z,22.83
2023-04-26T05:19:38.233Z,19.97
2023-04-26T05:22:41.358Z,22.33
2023-04-26T05:25:43.929Z,21.35
2023-04-26T05:28:47.861Z,21.70
2023-04-26T05:31:50.725Z,17.87
2023-04-26T05:34:54.486Z,20.63
2023-04-26T05:40:59.599Z,20.37
2023-04-26T05:44:03.939Z,23.87
2023-04-26T05:47:06.539Z,23.30
2023-04-26T05:50:10.157Z,26.23
2023-04-26T05:53:12.796Z,19.33
2023-04-26T05:56:15.527Z,19.27
2023-04-26T05:59:19.486Z,29.50
2023-04-26T06:02:22.106Z,13.30
2023-04-26T06:05:25.009Z,22.20
2023-04-26T06:08:28.369Z,19.05
2023-04-26T06:11:31.202Z,23.80
2023-04-26T06:14:35.114Z,18.05
2023-04-26T06:17:37.709Z,18.70
2023-04-26T06:20:40.365Z,28.00
2023-04-26T06:23:43.204Z,15.03
2023-04-26T06:26:45.805Z,17.90
2023-04-26T06:29:50.543Z,14.30
2023-04-26T06:32:53.169Z,12.30
2023-04-26T06:35:55.845Z,17.93
2023-04-26T06:38:58.413Z,16.67
2023-04-26T06:42:01.370Z,19.53
2023-04-26T06:45:06.567Z,16.90
2023-04-26T06:48:09.288Z,14.00
2023-04-26T06:51:12.115Z,15.77
2023-04-26T06:54:14.986Z,10.73
2023-04-26T06:57:17.618Z,13.23
2023-04-26T07:00:22.596Z,10.00
2023-04-26T07:03:25.748Z,8.17
2023-04-26T07:06:28.548Z,5.90
2023-04-26T07:09:31.689Z,9.30
2023-04-26T07:12:34.255Z,11.50
2023-04-26T07:15:38.440Z,12.27
2023-04-26T07:18:41.273Z,9.93
2023-04-26T07:21:43.921Z,6.47
2023-04-26T07:24:46.479Z,8.70
2023-04-26T07:27:51.618Z,9.30
2023-04-26T07:30:55.778Z,9.67
2023-04-26T07:33:58.371Z,12.63
2023-04-26T07:37:01.683Z,11.83
2023-04-26T07:40:08.039Z,8.57
2023-04-26T07:43:10.694Z,6.47
2023-04-26T07:46:14.944Z,7.07
2023-04-26T07:49:17.565Z,12.00
2023-04-26T07:52:20.539Z,11.40
2023-04-26T07:55:23.204Z,9.43
2023-04-26T07:58:25.823Z,13.70
2023-04-26T08:01:30.320Z,9.13
2023-04-26T08:04:34.750Z,6.80
2023-04-26T08:07:37.715Z,8.17
2023-04-26T08:10:41.752Z,8.50
2023-04-26T08:13:45.041Z,9.93
2023-04-26T08:16:49.140Z,9.93
2023-04-26T08:19:51.693Z,9.20
2023-04-26T08:22:56.774Z,6.97
2023-04-26T08:25:59.647Z,7.90
2023-04-26T08:29:02.281Z,6.60
2023-04-26T08:32:07.180Z,8.87
2023-04-26T08:35:10.683Z,8.73
2023-04-26T08:38:13.417Z,11.68
2023-04-26T08:41:16.766Z,8.52
2023-04-26T08:44:24.234Z,9.93
2023-04-26T08:47:31.641Z,9.17
2023-04-26T08:50:34.890Z,10.67
2023-04-26T08:53:38.224Z,11.93
2023-04-26T08:56:44.222Z,12.60
2023-04-26T08:59:46.845Z,6.97
2023-04-26T09:02:52.520Z,8.93
2023-04-26T09:05:55.857Z,11.20
2023-04-26T09:08:58.893Z,7.45
2023-04-26T09:12:03.246Z,7.50
2023-04-26T09:15:07.321Z,10.33
2023-04-26T09:18:21.791Z,8.10
2023-04-26T09:21:24.422Z,9.17
2023-04-26T09:24:27.047Z,10.57
2023-04-26T09:27:37.453Z,13.13
2023-04-26T09:30:40.431Z,10.27
2023-04-26T09:34:02.118Z,8.45
2023-04-26T09:37:04.850Z,8.10
2023-04-26T09:40:11.873Z,9.20
2023-04-26T09:43:15.979Z,8.03
2023-04-26T09:46:23.880Z,9.13
2023-04-26T09:49:28.958Z,6.87
2023-04-26T09:52:31.775Z,8.93
2023-04-26T09:55:35.920Z,14.73
2023-04-26T09:58:39.674Z,6.53
2023-04-26T10:01:42.652Z,12.63
2023-04-26T10:04:48.133Z,13.18
2023-04-26T10:07:51.842Z,7.73
2023-04-26T10:10:55.487Z,9.13
2023-04-26T10:13:58.124Z,5.73
2023-04-26T10:17:01.641Z,5.85
2023-04-26T10:20:10.114Z,8.27
2023-04-26T10:23:20.161Z,9.47
2023-04-26T10:26:48.199Z,6.03
2023-04-26T10:30:12.201Z,9.97
2023-04-26T10:33:15.188Z,5.77
2023-04-26T10:36:21.114Z,7.82
2023-04-26T10:39:25.096Z,8.63
2023-04-26T10:42:30.278Z,10.40
2023-04-26T10:45:33.083Z,5.67
2023-04-26T10:48:35.767Z,7.88
2023-04-26T10:51:39.765Z,5.40
2023-04-26T10:54:52.709Z,7.07
2023-04-26T10:57:57.386Z,5.93
2023-04-26T11:01:07.120Z,6.80
2023-04-26T11:04:11.616Z,9.60
2023-04-26T11:07:16.230Z,6.20
2023-04-26T11:10:23.852Z,5.30
2023-04-26T11:13:26.653Z,6.37
2023-04-26T11:16:30.077Z,4.93
2023-04-26T11:22:40.792Z,4.40
2023-04-26T11:25:43.394Z,6.80
2023-04-26T11:28:46.537Z,10.77
2023-04-26T11:31:54.516Z,7.97
2023-04-26T11:35:01.407Z,7.63
2023-04-26T11:38:06.619Z,6.00
2023-04-26T11:41:10.461Z,8.90
2023-04-26T11:44:13.151Z,5.60
2023-04-26T11:47:15.767Z,8.88
2023-04-26T11:50:18.991Z,6.18
2023-04-26T11:53:23.442Z,7.10
2023-04-26T11:56:26.862Z,8.10
2023-04-26T12:02:32.423Z,7.37
2023-04-26T12:05:35.151Z,7.65
2023-04-26T12:08:39.124Z,8.20
2023-04-26T12:11:41.795Z,5.07
2023-04-26T12:14:45.449Z,10.10
2023-04-26T12:17:58.289Z,8.23
2023-04-26T12:21:01.294Z,6.95
2023-04-26T12:24:05.777Z,9.13
2023-04-26T12:27:08.546Z,6.20
2023-04-26T12:30:11.631Z,5.20
2023-04-26T12:33:17.457Z,6.93
2023-04-26T12:36:21.162Z,5.00
2023-04-26T12:39:25.119Z,5.00
2023-04-26T12:42:27.793Z,9.40
2023-04-26T12:45:30.451Z,7.25
2023-04-26T12:48:34.201Z,8.67
2023-04-26T12:51:36.772Z,5.00
2023-04-26T12:54:40.682Z,9.05
2023-04-26T12:57:44.576Z,7.60
2023-04-26T13:00:47.128Z,4.43
2023-04-26T13:03:49.888Z,5.57
2023-04-26T13:06:53.015Z,3.47
2023-04-26T13:09:56.983Z,6.75
2023-04-26T13:12:59.759Z,5.83
2023-04-26T13:16:02.412Z,8.10
2023-04-26T13:19:05.161Z,5.93
2023-04-26T13:22:10.008Z,7.65
2023-04-26T13:25:15.687Z,5.27
2023-04-26T13:28:18.234Z,4.70
2023-04-26T13:31:21.109Z,4.63
2023-04-26T13:37:27.006Z,7.37
2023-04-26T13:40:31.063Z,4.13
2023-04-26T13:43:33.639Z,5.95
2023-04-26T13:46:36.749Z,5.32
2023-04-26T13:49:40.084Z,6.43
2023-04-26T13:52:42.924Z,4.20
2023-04-26T13:55:46.901Z,5.80
2023-04-26T13:58:49.794Z,7.90
2023-04-26T14:01:54.704Z,3.40
2023-04-26T14:04:58.523Z,6.53
2023-04-26T14:08:01.290Z,7.20
2023-04-26T14:11:06.127Z,5.72
2023-04-26T14:14:08.694Z,4.07
2023-04-26T14:17:11.660Z,6.65
2023-04-26T14:23:16.955Z,9.13
2023-04-26T14:26:21.533Z,5.07
2023-04-26T14:29:24.127Z,5.03
2023-04-26T14:32:26.922Z,4.95
2023-04-26T14:35:29.518Z,4.88
2023-04-26T14:38:32.431Z,4.90
2023-04-26T14:41:36.353Z,9.00
2023-04-26T14:44:38.971Z,4.37
2023-04-26T14:47:41.547Z,8.82
2023-04-26T14:50:44.197Z,4.95
2023-04-26T14:53:47.071Z,7.47
2023-04-26T14:59:54.113Z,5.95
2023-04-26T15:02:56.873Z,5.90
2023-04-26T15:09:02.549Z,4.72
2023-04-26T15:12:07.920Z,8.77
2023-04-26T15:15:11.333Z,6.83
2023-04-26T15:18:16.738Z,5.47
2023-04-26T15:21:19.663Z,7.67
2023-04-26T15:24:22.524Z,8.18
2023-04-26T15:27:26.938Z,4.80
2023-04-26T15:30:30.323Z,6.90
2023-04-26T15:33:32.920Z,7.97
2023-04-26T15:36:35.520Z,8.35
2023-04-26T15:39:38.289Z,8.15
2023-04-26T15:42:42.196Z,5.90
2023-04-26T15:45:44.763Z,6.30
2023-04-26T15:48:48.164Z,8.50
2023-04-26T15:51:50.729Z,4.35
2023-04-26T15:54:53.383Z,4.60
2023-04-26T15:57:57.554Z,7.85
2023-04-26T16:01:00.332Z,4.07
2023-04-26T16:07:05.975Z,4.13
2023-04-26T16:10:10.117Z,8.20
2023-04-26T16:13:16.373Z,7.60
2023-04-26T16:16:19.302Z,5.77
2023-04-26T16:19:22.932Z,4.00
2023-04-26T16:22:25.730Z,5.57
2023-04-26T16:25:28.145Z,4.38
2023-04-26T16:28:32.069Z,6.60
2023-04-26T16:31:34.896Z,7.10
2023-04-26T16:34:37.534Z,4.32
2023-04-26T16:37:41.742Z,7.97
2023-04-26T16:40:44.345Z,7.60
2023-04-26T16:43:48.509Z,7.18
2023-04-26T16:46:51.182Z,8.57
2023-04-26T16:49:53.926Z,6.63
2023-04-26T16:52:56.559Z,7.22
2023-04-26T16:55:59.365Z,7.45
2023-04-26T16:59:03.249Z,5.75
2023-04-26T17:02:06.061Z,6.80
2023-04-26T17:05:10.026Z,4.93
2023-04-26T17:08:12.718Z,4.70
2023-04-26T17:11:16.145Z,5.50
2023-04-26T17:17:22.529Z,5.68
2023-04-26T17:20:25.161Z,7.43
2023-04-26T17:23:27.867Z,4.22
2023-04-26T17:26:30.945Z,4.25
2023-04-26T17:29:35.116Z,9.02
2023-04-26T17:32:37.854Z,5.03
2023-04-26T17:35:40.441Z,10.57
2023-04-26T17:38:43.344Z,4.00
2023-04-26T17:41:46.008Z,4.22
2023-04-26T17:44:49.973Z,7.32
2023-04-26T17:47:52.554Z,5.47
2023-04-26T17:50:55.148Z,5.85
2023-04-26T17:53:57.864Z,3.50
2023-04-26T17:57:00.465Z,5.22
2023-04-26T18:00:05.474Z,7.47
2023-04-26T18:03:08.432Z,5.17
2023-04-26T18:06:11.481Z,3.88
2023-04-26T18:09:14.083Z,4.78
2023-04-26T18:12:16.743Z,7.75
2023-04-26T18:15:20.864Z,7.38
2023-04-26T18:18:25.187Z,3.57
2023-04-26T18:21:29.748Z,4.93
2023-04-26T18:24:32.294Z,7.47
2023-04-26T18:27:34.990Z,5.50
2023-04-26T18:30:38.948Z,3.67
2023-04-26T18:33:41.493Z,5.63
2023-04-26T18:36:44.222Z,2.43
2023-04-26T18:39:46.830Z,7.18
2023-04-26T18:42:49.523Z,5.47
2023-04-26T18:45:53.501Z,6.07
2023-04-26T18:48:56.280Z,4.30
2023-04-26T18:51:58.810Z,5.40
2023-04-26T18:55:01.348Z,8.83
2023-04-26T18:58:03.980Z,7.20
2023-04-26T19:01:08.071Z,8.43
2023-04-26T19:04:10.929Z,5.63
2023-04-26T19:07:13.629Z,5.78
2023-04-26T19:10:16.565Z,5.90
2023-04-26T19:13:19.630Z,6.43
2023-04-26T19:16:23.750Z,4.85
2023-04-26T19:19:26.427Z,4.17
2023-04-26T19:22:29.075Z,6.97
2023-04-26T19:25:31.646Z,6.00
2023-04-26T19:28:34.478Z,10.23
2023-04-26T19:31:38.860Z,7.07
2023-04-26T19:34:41.502Z,8.00
2023-04-26T19:37:44.080Z,10.53
2023-04-26T19:40:46.808Z,6.50
2023-04-26T19:43:49.494Z,9.32
2023-04-26T19:46:53.761Z,7.20
2023-04-26T19:49:57.837Z,6.77
2023-04-26T19:53:00.478Z,6.00
2023-04-26T19:56:03.100Z,6.10
2023-04-26T19:59:06.033Z,9.60
2023-04-26T20:02:10.153Z,9.25
2023-04-26T20:05:13.230Z,8.27
2023-04-26T20:08:15.817Z,7.97
2023-04-26T20:11:19.231Z,5.90
2023-04-26T20:14:21.756Z,9.85
2023-04-26T20:17:25.800Z,7.67
2023-04-26T20:20:28.599Z,5.87
2023-04-26T20:23:31.401Z,4.72
2023-04-26T20:26:33.936Z,5.82
2023-04-26T20:29:37.177Z,9.23
2023-04-26T20:32:41.109Z,4.60
2023-04-26T20:35:43.704Z,5.07
2023-04-26T20:38:46.322Z,6.93
2023-04-26T20:41:48.881Z,11.07
2023-04-26T20:44:51.470Z,9.03
2023-04-26T20:47:55.558Z,4.60
2023-04-26T20:50:58.724Z,5.03
2023-04-26T20:54:01.369Z,8.82
2023-04-26T20:57:04.460Z,9.27
2023-04-26T21:00:10.348Z,6.90
2023-04-26T21:03:14.613Z,4.97
2023-04-26T21:06:17.264Z,5.47
2023-04-26T21:09:19.840Z,7.33
2023-04-26T21:12:22.457Z,9.07
2023-04-26T21:15:25.044Z,5.57
2023-04-26T21:18:28.946Z,4.47
2023-04-26T21:21:32.612Z,8.23
2023-04-26T21:27:37.877Z,13.80
2023-04-26T21:30:40.509Z,7.83
2023-04-26T21:33:44.380Z,6.27
2023-04-26T21:36:47.319Z,4.03
2023-04-26T21:39:49.933Z,7.38
2023-04-26T21:43:03.911Z,13.73
2023-04-26T21:46:07.905Z,6.57
2023-04-26T21:49:12.211Z,8.57
2023-04-26T21:52:14.875Z,8.77
2023-04-26T21:55:17.482Z,6.13
2023-04-26T21:58:20.562Z,5.33
2023-04-26T22:01:23.378Z,7.10
2023-04-26T22:04:27.290Z,6.68
2023-04-26T22:07:30.104Z,8.67
2023-04-26T22:10:32.899Z,7.40
2023-04-26T22:13:35.777Z,6.45
2023-04-26T22:16:38.278Z,5.45
2023-04-26T22:19:42.188Z,8.90
2023-04-26T22:22:44.743Z,6.07
2023-04-26T22:25:47.374Z,5.57
2023-04-26T22:28:49.893Z,6.77
2023-04-26T22:31:52.487Z,5.97
2023-04-26T22:34:56.402Z,4.80
2023-04-26T22:37:59.020Z,7.67
2023-04-26T22:41:01.531Z,9.60
2023-04-26T22:44:04.077Z,5.50
2023-04-26T22:47:06.657Z,10.93
2023-04-26T22:50:11.797Z,4.83
2023-04-26T22:53:14.384Z,6.93
2023-04-26T22:56:17.033Z,5.33
2023-04-26T22:59:19.616Z,11.27
2023-04-26T23:02:22.343Z,6.40
2023-04-26T23:05:26.338Z,8.00
2023-04-26T23:08:28.840Z,5.87
2023-04-26T23:11:31.802Z,5.70
2023-04-26T23:14:35.105Z,8.23
2023-04-26T23:17:39.009Z,5.18
2023-04-26T23:23:45.395Z,6.28
2023-04-26T23:26:47.932Z,4.00
2023-04-26T23:29:50.967Z,5.40
2023-04-26T23:32:53.559Z,6.65
2023-04-26T23:35:57.702Z,5.73
2023-04-26T23:39:00.212Z,7.17
2023-04-26T23:42:03.727Z,3.87
2023-04-26T23:45:07.759Z,2.75
2023-04-26T23:48:10.371Z,5.37
2023-04-26T23:51:14.349Z,4.50
2023-04-26T23:54:17.004Z,4.47
2023-04-26T23:57:19.582Z,7.43
